Time;durP1;ratioP1;P1;durP2;ratioP2;P2;SDS_P1;SDS_P2;PMS_P1;PMS_P2;Temp;Humidity;BMP_temperature;BMP_pressure;BME280_temperature;BME280_humidity;BME280_pressure;Samples;Min_cycle;Max_cycle;Signal;HPM_P1;HPM_P2
2021/04/24 00:00:55;;;;;;;4.17;2.20;;;18.60;27.30;;;;;;8392507;28;20056;-54
2021/04/24 00:04:56;;;;;;;4.13;2.47;;;18.50;27.20;;;;;;8367769;28;20044;-55
2021/04/24 00:08:58;;;;;;;3.50;2.50;;;18.50;27.20;;;;;;8389709;28;20143;-54
2021/04/24 00:13:00;;;;;;;4.15;2.30;;;18.50;27.30;;;;;;8396074;28;20041;-54
2021/04/24 00:17:01;;;;;;;4.05;2.33;;;18.50;27.20;;;;;;8396073;28;20119;-54
2021/04/24 00:21:03;;;;;;;3.00;2.47;;;18.50;27.30;;;;;;8398654;28;20032;-54
2021/04/24 00:25:05;;;;;;;4.85;2.97;;;18.50;27.30;;;;;;8395851;28;20060;-53
2021/04/24 00:29:06;;;;;;;4.20;2.47;;;18.40;27.20;;;;;;8395829;28;20052;-53
2021/04/24 00:33:07;;;;;;;3.77;2.00;;;18.40;27.20;;;;;;8394377;28;20081;-54
2021/04/24 00:37:09;;;;;;;4.15;2.45;;;18.40;27.30;;;;;;8395683;28;20041;-53
2021/04/24 00:41:10;;;;;;;3.83;2.33;;;18.40;27.30;;;;;;8399851;28;20032;-54
2021/04/24 00:45:13;;;;;;;4.05;2.60;;;18.40;27.30;;;;;;8393759;28;20118;-53
2021/04/24 00:49:13;;;;;;;4.30;2.75;;;18.40;27.30;;;;;;8395207;28;20091;-54
2021/04/24 00:53:14;;;;;;;5.17;3.30;;;18.40;27.30;;;;;;8387862;28;20112;-54
2021/04/24 00:57:15;;;;;;;5.30;2.60;;;18.40;27.30;;;;;;8364566;28;20037;-52
2021/04/24 01:01:16;;;;;;;5.22;2.50;;;18.30;27.30;;;;;;8392200;28;20043;-54
2021/04/24 01:05:23;;;;;;;3.97;2.50;;;18.30;27.30;;;;;;8395036;28;20034;-53
2021/04/24 01:09:24;;;;;;;5.57;3.10;;;18.30;27.30;;;;;;8392813;28;20079;-53
2021/04/24 01:13:25;;;;;;;5.13;2.88;;;18.30;27.30;;;;;;8394220;28;20032;-54
2021/04/24 01:17:26;;;;;;;4.73;2.87;;;18.30;27.30;;;;;;8398886;28;20504;-54
2021/04/24 01:21:28;;;;;;;6.10;3.10;;;18.20;27.30;;;;;;8391984;28;20036;-54
2021/04/24 01:25:29;;;;;;;7.30;3.25;;;18.30;27.30;;;;;;8393673;28;20079;-53
2021/04/24 01:29:30;;;;;;;5.97;2.90;;;18.20;27.30;;;;;;8393274;28;20153;-53
2021/04/24 01:33:31;;;;;;;7.22;3.50;;;18.20;27.30;;;;;;8396680;28;20090;-51
2021/04/24 01:37:31;;;;;;;6.32;3.20;;;18.20;27.30;;;;;;8393694;28;20032;-54
2021/04/24 01:41:33;;;;;;;7.83;3.47;;;18.20;27.40;;;;;;8393528;28;20056;-53
2021/04/24 01:45:35;;;;;;;4.93;3.40;;;18.10;27.30;;;;;;8382061;27;20037;-53
2021/04/24 01:49:35;;;;;;;;;;;18.20;27.40;;;;;;8363774;28;20060;-54
2021/04/24 01:53:37;;;;;;;4.20;3.47;;;18.10;27.40;;;;;;8395231;28;20394;-53
2021/04/24 01:57:40;;;;;;;5.72;2.90;;;18.10;27.40;;;;;;8391512;28;20037;-54
2021/04/24 02:01:42;;;;;;;5.63;3.20;;;18.10;27.40;;;;;;8392996;28;20110;-53
2021/04/24 02:05:44;;;;;;;6.65;3.33;;;18.10;27.50;;;;;;8391816;28;20032;-54
2021/04/24 02:09:45;;;;;;;5.05;2.78;;;18.00;27.40;;;;;;8395525;28;20402;-53
2021/04/24 02:13:45;;;;;;;6.60;3.23;;;18.00;27.40;;;;;;8392561;28;20044;-54
2021/04/24 02:17:46;;;;;;;4.57;2.77;;;18.00;27.40;;;;;;8391995;28;20463;-54
2021/04/24 02:21:47;;;;;;;7.63;3.10;;;18.00;27.40;;;;;;8390299;28;20843;-53
2021/04/24 02:25:48;;;;;;;6.00;3.00;;;18.00;27.40;;;;;;8396661;28;20060;-53
2021/04/24 02:29:49;;;;;;;6.43;3.35;;;18.00;27.40;;;;;;8391856;28;20041;-53
2021/04/24 02:33:50;;;;;;;6.32;3.47;;;17.90;27.40;;;;;;8390306;28;20047;-53
2021/04/24 02:37:50;;;;;;;5.07;2.87;;;17.90;27.40;;;;;;8392007;28;20037;-53
2021/04/24 02:41:51;;;;;;;4.30;2.60;;;17.90;27.40;;;;;;8391706;28;20090;-47
2021/04/24 02:45:51;;;;;;;5.13;2.90;;;17.90;27.40;;;;;;8394765;28;20112;-53
2021/04/24 02:49:52;;;;;;;5.00;2.83;;;17.90;27.40;;;;;;8391255;28;20486;-53
2021/04/24 02:53:52;;;;;;;4.70;2.97;;;17.90;27.40;;;;;;8389583;28;20033;-53
2021/04/24 02:57:53;;;;;;;4.47;2.73;;;17.90;27.50;;;;;;8391361;28;20040;-54
2021/04/24 03:01:55;;;;;;;5.07;3.07;;;17.90;27.50;;;;;;8395862;28;20489;-53
2021/04/24 03:05:57;;;;;;;4.82;2.88;;;17.90;27.50;;;;;;8389380;28;20066;-53
2021/04/24 03:09:57;;;;;;;5.07;3.03;;;17.80;27.40;;;;;;8391289;28;20109;-54
2021/04/24 03:13:58;;;;;;;3.43;2.23;;;17.80;27.50;;;;;;8390773;28;20029;-52
2021/04/24 03:17:59;;;;;;;5.57;2.90;;;17.80;27.50;;;;;;8393982;28;20090;-54
2021/04/24 03:22:00;;;;;;;6.40;2.80;;;17.80;27.50;;;;;;8390849;28;20089;-53
2021/04/24 03:26:00;;;;;;;5.60;2.97;;;17.80;27.50;;;;;;8390538;28;20393;-51
2021/04/24 03:30:02;;;;;;;4.93;2.53;;;17.80;27.50;;;;;;8388168;28;20467;-54
2021/04/24 03:34:03;;;;;;;5.53;3.13;;;17.70;27.50;;;;;;8390519;28;20040;-51
2021/04/24 03:38:03;;;;;;;3.70;2.60;;;17.70;27.50;;;;;;8394909;28;20047;-54
2021/04/24 03:42:05;;;;;;;4.77;2.73;;;17.70;27.50;;;;;;8388993;28;20440;-53
2021/04/24 03:46:05;;;;;;;6.30;2.70;;;17.70;27.50;;;;;;8390374;28;20050;-54
2021/04/24 03:50:07;;;;;;;8.27;2.67;;;17.70;27.50;;;;;;8389378;28;20397;-53
2021/04/24 03:54:07;;;;;;;3.63;2.50;;;17.70;27.50;;;;;;8393167;28;20037;-53
2021/04/24 03:58:08;;;;;;;3.92;2.67;;;17.70;27.50;;;;;;8389854;28;20040;-54
2021/04/24 04:02:09;;;;;;;8.00;3.23;;;17.70;27.50;;;;;;8390318;28;20029;-54
2021/04/24 04:06:09;;;;;;;5.33;2.77;;;17.70;27.50;;;;;;8388370;28;20106;-54
2021/04/24 04:10:14;;;;;;;4.23;2.87;;;17.70;27.50;;;;;;8389960;28;20098;-54
2021/04/24 04:14:15;;;;;;;8.10;3.33;;;17.70;27.50;;;;;;8394737;28;20071;-52
2021/04/24 04:18:17;;;;;;;3.50;2.53;;;17.60;27.50;;;;;;8388303;28;20686;-53
2021/04/24 04:22:18;;;;;;;6.95;2.83;;;17.60;27.50;;;;;;8389713;28;20046;-53
2021/04/24 04:26:18;;;;;;;6.70;2.77;;;17.60;27.50;;;;;;8390277;28;20044;-52
2021/04/24 04:30:20;;;;;;;5.17;2.43;;;17.60;27.50;;;;;;8398514;28;20442;-53
2021/04/24 04:34:21;;;;;;;6.50;2.83;;;17.60;27.50;;;;;;8395420;28;20036;-53
2021/04/24 04:38:21;;;;;;;3.43;2.50;;;17.60;27.50;;;;;;8395378;28;20037;-53
2021/04/24 04:42:22;;;;;;;3.93;2.97;;;17.60;27.50;;;;;;8393641;28;20033;-52
2021/04/24 04:46:22;;;;;;;4.17;2.97;;;17.60;27.50;;;;;;8399686;28;20064;-53
2021/04/24 04:50:27;;;;;;;3.77;2.37;;;17.50;27.50;;;;;;8394626;28;20501;-54
2021/04/24 04:54:28;;;;;;;5.68;2.78;;;17.50;27.50;;;;;;8393011;28;20043;-53
2021/04/24 04:58:28;;;;;;;3.80;2.30;;;17.50;27.60;;;;;;8393995;28;20389;-54
2021/04/24 05:02:29;;;;;;;5.00;2.63;;;17.50;27.60;;;;;;8394878;28;20036;-54
2021/04/24 05:06:29;;;;;;;5.63;3.03;;;17.50;27.50;;;;;;8397678;28;20083;-54
2021/04/24 05:10:30;;;;;;;3.67;2.67;;;17.50;27.60;;;;;;8394492;28;20043;-53
2021/04/24 05:14:31;;;;;;;4.10;2.23;;;17.50;27.60;;;;;;8394514;28;20074;-53
2021/04/24 05:18:31;;;;;;;5.17;2.87;;;17.50;27.60;;;;;;8392767;28;20049;-53
2021/04/24 05:22:32;;;;;;;4.68;2.80;;;17.40;27.50;;;;;;8399072;28;20482;-53
2021/04/24 05:26:33;;;;;;;5.30;2.70;;;17.40;27.50;;;;;;8393687;28;20048;-54
2021/04/24 05:30:33;;;;;;;5.13;2.83;;;17.40;27.50;;;;;;8392186;28;20036;-52
2021/04/24 05:34:34;;;;;;;3.50;2.33;;;17.40;27.50;;;;;;8393782;28;20029;-54
2021/04/24 05:38:35;;;;;;;4.23;2.70;;;17.40;27.60;;;;;;8391902;28;20029;-53
2021/04/24 05:42:36;;;;;;;4.22;2.47;;;17.40;27.60;;;;;;8363042;28;20033;-54
2021/04/24 05:46:36;;;;;;;4.63;2.67;;;17.40;27.60;;;;;;8384519;28;20078;-53
2021/04/24 05:50:37;;;;;;;3.93;2.43;;;17.40;27.60;;;;;;8392949;28;20485;-52
2021/04/24 05:54:37;;;;;;;6.93;2.53;;;17.40;27.60;;;;;;8390451;28;20037;-54
2021/04/24 05:58:38;;;;;;;5.73;3.10;;;17.40;27.50;;;;;;8396970;28;20043;-54
2021/04/24 06:02:39;;;;;;;3.80;2.80;;;17.40;27.50;;;;;;8392633;28;20098;-54
2021/04/24 06:06:39;;;;;;;5.10;2.60;;;17.50;27.50;;;;;;8390665;28;20424;-53
2021/04/24 06:10:40;;;;;;;6.07;3.73;;;17.50;27.40;;;;;;8392275;28;20040;-53
2021/04/24 06:14:40;;;;;;;4.33;2.80;;;17.50;27.40;;;;;;8396652;28;20120;-53
2021/04/24 06:18:41;;;;;;;4.40;2.77;;;17.60;27.40;;;;;;8390456;28;20421;-54
2021/04/24 06:22:42;;;;;;;7.47;3.13;;;17.60;27.30;;;;;;8392210;28;20030;-53
2021/04/24 06:26:42;;;;;;;5.60;2.60;;;17.60;27.30;;;;;;8368193;28;20487;-54
2021/04/24 06:30:43;;;;;;;3.27;2.23;;;17.70;27.20;;;;;;8381508;28;20044;-54
2021/04/24 06:34:43;;;;;;;5.30;2.90;;;17.70;27.20;;;;;;8363202;28;20520;-54
2021/04/24 06:38:45;;;;;;;3.63;2.17;;;17.70;27.10;;;;;;8382248;28;20047;-54
2021/04/24 06:42:46;;;;;;;4.22;2.67;;;17.80;27.10;;;;;;8364703;28;20078;-54
2021/04/24 06:46:47;;;;;;;4.90;2.70;;;17.90;27.00;;;;;;8391549;28;20041;-54
2021/04/24 06:50:47;;;;;;;5.17;2.63;;;18.00;26.80;;;;;;8395722;28;20042;-54
2021/04/24 06:54:48;;;;;;;8.00;2.67;;;18.20;26.60;;;;;;8389399;28;20028;-53
2021/04/24 06:58:48;;;;;;;6.57;3.10;;;18.30;26.60;;;;;;8375273;28;20041;-55
2021/04/24 07:02:49;;;;;;;7.67;2.77;;;18.40;26.40;;;;;;8382660;28;20063;-53
2021/04/24 07:06:50;;;;;;;6.60;2.57;;;18.40;26.30;;;;;;8393398;28;20040;-53
2021/04/24 07:10:50;;;;;;;3.30;2.20;;;18.50;26.40;;;;;;8392338;28;20032;-54
2021/04/24 07:14:51;;;;;;;3.90;2.50;;;18.50;26.30;;;;;;8390358;28;20033;-54
2021/04/24 07:18:51;;;;;;;4.83;2.90;;;18.40;26.40;;;;;;8389734;28;20086;-54
2021/04/24 07:22:52;;;;;;;7.40;2.77;;;18.40;26.50;;;;;;8390631;28;20032;-54
2021/04/24 07:26:52;;;;;;;5.27;2.70;;;18.30;26.60;;;;;;8393435;28;20044;-48
2021/04/24 07:30:53;;;;;;;4.97;3.07;;;18.20;26.60;;;;;;8390643;28;20516;-54
2021/04/24 07:34:54;;;;;;;4.40;2.43;;;18.20;26.60;;;;;;8390963;28;20477;-54
2021/04/24 07:38:55;;;;;;;3.97;2.30;;;18.20;26.70;;;;;;8388161;28;20028;-54
2021/04/24 07:42:56;;;;;;;4.72;2.65;;;18.20;26.80;;;;;;8371569;28;20362;-54
2021/04/24 07:46:57;;;;;;;3.30;2.50;;;18.20;26.70;;;;;;8360676;28;20049;-54
2021/04/24 07:50:57;;;;;;;4.63;2.80;;;18.20;26.80;;;;;;8376328;28;20071;-55
2021/04/24 07:54:58;;;;;;;2.73;2.30;;;18.10;26.90;;;;;;8390871;28;20501;-54
2021/04/24 07:58:58;;;;;;;4.53;2.63;;;18.10;27.00;;;;;;8390425;28;20036;-54
2021/04/24 08:02:59;;;;;;;3.10;1.90;;;18.10;27.00;;;;;;8396378;28;20131;-53
2021/04/24 08:07:01;;;;;;;5.03;2.37;;;18.00;27.10;;;;;;8393643;28;20071;-56
2021/04/24 08:11:01;;;;;;;4.22;2.50;;;18.00;27.40;;;;;;8393837;28;20485;-57
2021/04/24 08:15:06;;;;;;;5.80;2.47;;;18.00;27.50;;;;;;8393491;28;20032;-56
2021/04/24 08:19:06;;;;;;;4.35;2.50;;;18.00;27.50;;;;;;8388714;28;20037;-56
2021/04/24 08:23:07;;;;;;;7.43;2.30;;;17.90;27.40;;;;;;8352084;28;20056;-56
2021/04/24 08:27:08;;;;;;;5.87;2.60;;;18.00;27.50;;;;;;8379000;28;20041;-56
2021/04/24 08:31:08;;;;;;;7.93;2.67;;;18.00;27.50;;;;;;8395446;28;20516;-56
2021/04/24 08:35:11;;;;;;;4.37;2.20;;;18.00;27.50;;;;;;8400097;28;20037;-56
2021/04/24 08:39:12;;;;;;;5.10;2.35;;;18.00;27.50;;;;;;8362199;28;20385;-57
2021/04/24 08:43:14;;;;;;;5.90;2.50;;;18.00;27.50;;;;;;8385025;28;20036;-56
2021/04/24 08:47:15;;;;;;;4.35;2.67;;;18.10;27.50;;;;;;8395307;28;20144;-56
2021/04/24 08:51:15;;;;;;;4.07;2.20;;;18.10;27.50;;;;;;8393520;28;20101;-56
2021/04/24 08:55:26;;;;;;;4.33;2.27;;;18.10;27.50;;;;;;8399463;28;20024;-56
2021/04/24 08:59:27;;;;;;;5.25;2.40;;;18.10;27.60;;;;;;8394953;28;20025;-56
2021/04/24 09:03:27;;;;;;;3.90;2.07;;;18.10;27.60;;;;;;8393206;28;20047;-56
2021/04/24 09:07:28;;;;;;;4.80;2.50;;;18.20;27.60;;;;;;8393448;28;20041;-56
2021/04/24 09:11:30;;;;;;;5.03;2.17;;;18.20;27.60;;;;;;8398970;28;20036;-56
2021/04/24 09:15:31;;;;;;;4.43;2.17;;;18.20;27.60;;;;;;8392425;28;20079;-56
2021/04/24 09:19:37;;;;;;;4.30;2.22;;;18.20;27.60;;;;;;8394579;28;20505;-56
2021/04/24 09:23:38;;;;;;;3.40;2.05;;;18.20;27.60;;;;;;8393800;28;20029;-56
2021/04/24 09:27:42;;;;;;;5.37;2.10;;;18.20;27.60;;;;;;8389994;28;20139;-55
2021/04/24 09:31:43;;;;;;;3.95;2.17;;;18.20;27.60;;;;;;8365207;28;20095;-56
2021/04/24 09:35:46;;;;;;;4.93;2.20;;;18.30;27.70;;;;;;8360786;28;20033;-56
2021/04/24 09:39:52;;;;;;;5.43;2.30;;;18.30;27.70;;;;;;8376394;28;20048;-55
2021/04/24 09:44:00;;;;;;;4.07;2.05;;;18.40;27.70;;;;;;8392913;28;20127;-56
2021/04/24 09:48:02;;;;;;;2.72;2.00;;;18.30;27.70;;;;;;8395922;28;20044;-57
2021/04/24 09:52:05;;;;;;;3.75;1.83;;;18.40;27.70;;;;;;8393334;28;20035;-55
2021/04/24 09:56:12;;;;;;;2.67;1.92;;;18.40;27.70;;;;;;8392872;28;20043;-57
2021/04/24 10:00:14;;;;;;;4.50;2.10;;;18.50;27.70;;;;;;8390631;28;20045;-56
2021/04/24 10:04:16;;;;;;;2.10;1.63;;;18.50;27.70;;;;;;8392738;28;20381;-57
2021/04/24 10:08:18;;;;;;;1.80;1.70;;;18.50;27.70;;;;;;8397133;28;20102;-57
2021/04/24 10:12:19;;;;;;;3.30;2.10;;;18.50;27.70;;;;;;8390718;28;20063;-56
2021/04/24 10:16:31;;;;;;;4.00;2.10;;;18.60;27.70;;;;;;8392304;28;20521;-57
2021/04/24 10:20:33;;;;;;;4.15;1.83;;;18.60;27.70;;;;;;8382955;28;20405;-57
2021/04/24 10:24:34;;;;;;;4.32;2.05;;;18.70;27.70;;;;;;8358150;27;20033;-57
2021/04/24 10:28:34;;;;;;;2.40;2.00;;;18.70;27.70;;;;;;8395020;28;20045;-57
2021/04/24 10:32:35;;;;;;;3.10;2.07;;;18.80;27.70;;;;;;8392244;28;20502;-57
2021/04/24 10:36:38;;;;;;;3.27;1.60;;;18.80;27.70;;;;;;8375075;28;20033;-56
2021/04/24 10:40:45;;;;;;;2.95;2.03;;;18.80;27.70;;;;;;8345557;28;20504;-56
2021/04/24 10:44:52;;;;;;;2.90;1.77;;;18.90;27.70;;;;;;8362966;28;20497;-57
2021/04/24 10:49:14;;;;;;;2.95;1.90;;;18.90;27.70;;;;;;8386760;28;20505;-56
2021/04/24 10:53:23;;;;;;;1.85;1.42;;;18.90;27.70;;;;;;8368383;28;20487;-58
2021/04/24 10:57:45;;;;;;;3.20;2.05;;;18.90;27.70;;;;;;8370930;28;20037;-57
2021/04/24 11:02:02;;;;;;;;;;;19.00;27.70;;;;;;8392030;28;20060;-57
2021/04/24 11:06:11;;;;;;;3.65;1.90;;;19.00;27.70;;;;;;8393929;28;20388;-56
2021/04/24 11:10:12;;;;;;;4.25;2.15;;;19.00;27.70;;;;;;8394198;28;20573;-56
2021/04/24 11:14:13;;;;;;;1.87;1.47;;;19.00;28.20;;;;;;8391243;28;20040;-57
2021/04/24 11:18:16;;;;;;;3.17;1.77;;;19.10;27.70;;;;;;8388762;28;20040;-57
2021/04/24 11:22:33;;;;;;;3.22;1.75;;;19.10;27.70;;;;;;8391082;28;20025;-56
2021/04/24 11:26:34;;;;;;;2.67;1.80;;;19.10;27.70;;;;;;8395353;28;20052;-57
2021/04/24 11:30:57;;;;;;;2.50;2.07;;;19.10;27.70;;;;;;8389157;28;20174;-57
2021/04/24 11:35:10;;;;;;;2.28;1.85;;;19.10;27.70;;;;;;8366432;28;20040;-56
2021/04/24 11:39:11;;;;;;;3.03;1.70;;;19.20;27.70;;;;;;8363760;27;20033;-57
2021/04/24 11:43:12;;;;;;;2.57;1.90;;;19.20;27.80;;;;;;8369818;28;20436;-57
2021/04/24 11:47:38;;;;;;;3.13;1.80;;;19.20;27.70;;;;;;8401782;28;20473;-56
2021/04/24 11:51:40;;;;;;;2.95;2.00;;;19.20;27.80;;;;;;8395358;28;20177;-56
2021/04/24 11:55:41;;;;;;;2.92;2.00;;;19.20;27.70;;;;;;8396958;28;20047;-56
2021/04/24 11:59:43;;;;;;;4.23;1.80;;;19.20;27.70;;;;;;8396439;28;20072;-57
2021/04/24 12:03:44;;;;;;;2.75;1.73;;;19.20;27.80;;;;;;8392159;28;23885;-56
2021/04/24 12:07:47;;;;;;;3.23;1.83;;;19.30;27.80;;;;;;8367834;28;20045;-56
2021/04/24 12:11:57;;;;;;;1.95;1.70;;;19.30;27.80;;;;;;8390386;28;20043;-56
2021/04/24 12:15:57;;;;;;;2.25;1.50;;;19.30;27.80;;;;;;8394622;28;20119;-58
2021/04/24 12:19:58;;;;;;;4.73;2.13;;;19.30;27.80;;;;;;8394738;28;20036;-57
2021/04/24 12:23:59;;;;;;;2.65;1.90;;;19.40;27.80;;;;;;8381925;28;20037;-58
2021/04/24 12:28:05;;;;;;;2.07;1.53;;;19.40;27.80;;;;;;8395645;28;20048;-58
2021/04/24 12:32:16;;;;;;;3.63;1.80;;;19.40;27.80;;;;;;8395740;28;20135;-56
2021/04/24 12:36:16;;;;;;;1.80;1.53;;;19.40;27.80;;;;;;8393581;28;20381;-56
2021/04/24 12:40:20;;;;;;;2.47;1.57;;;19.40;27.80;;;;;;8395558;28;20039;-56
2021/04/24 12:44:32;;;;;;;2.15;1.58;;;19.50;27.80;;;;;;8399989;28;20032;-56
2021/04/24 12:48:35;;;;;;;2.55;1.75;;;19.50;27.80;;;;;;8392334;28;20040;-56
2021/04/24 12:52:50;;;;;;;2.63;1.88;;;19.50;27.80;;;;;;8395028;28;20107;-57
2021/04/24 12:57:07;;;;;;;2.65;1.70;;;19.60;27.80;;;;;;8395057;28;20484;-58
2021/04/24 13:01:19;;;;;;;2.88;2.08;;;19.50;27.80;;;;;;8393493;28;20029;-57
2021/04/24 13:05:31;;;;;;;2.65;1.73;;;19.50;27.80;;;;;;8399263;28;20473;-56
2021/04/24 13:09:35;;;;;;;2.65;1.83;;;19.60;27.80;;;;;;8392882;28;20041;-57
2021/04/24 13:13:37;;;;;;;2.70;2.17;;;19.60;27.80;;;;;;8394339;28;20448;-57
2021/04/24 13:17:43;;;;;;;2.63;1.40;;;19.60;27.80;;;;;;8382631;28;20041;-57
2021/04/24 13:21:46;;;;;;;2.10;1.60;;;19.60;27.80;;;;;;8353483;28;20393;-56
2021/04/24 13:25:47;;;;;;;2.15;1.70;;;19.60;27.80;;;;;;8332405;28;20029;-56
2021/04/24 13:29:47;;;;;;;2.17;1.57;;;19.70;27.80;;;;;;8354207;28;20114;-56
2021/04/24 13:33:48;;;;;;;2.30;1.77;;;19.70;27.80;;;;;;8391599;28;20036;-56
2021/04/24 13:37:57;;;;;;;2.20;1.57;;;19.70;27.80;;;;;;8393742;28;20045;-56
2021/04/24 13:42:06;;;;;;;2.25;1.52;;;19.70;27.80;;;;;;8396273;28;20029;-58
2021/04/24 13:46:25;;;;;;;1.85;1.70;;;19.70;27.80;;;;;;8393476;28;20039;-58
2021/04/24 13:50:30;;;;;;;2.50;1.73;;;19.70;27.90;;;;;;8368296;28;20045;-56
2021/04/24 13:54:30;;;;;;;2.60;1.70;;;19.70;27.80;;;;;;8374545;28;20076;-56
2021/04/24 13:58:31;;;;;;;2.90;2.00;;;19.70;27.80;;;;;;8392403;28;20393;-56
2021/04/24 14:02:31;;;;;;;2.70;1.90;;;19.80;27.80;;;;;;8396614;28;20035;-56
2021/04/24 14:06:32;;;;;;;4.23;1.97;;;19.80;27.80;;;;;;8390359;28;20466;-57
2021/04/24 14:10:32;;;;;;;2.43;1.77;;;19.80;27.60;;;;;;8392779;28;20044;-57
2021/04/24 14:14:33;;;;;;;2.57;2.10;;;19.80;27.70;;;;;;8391693;28;20086;-57
2021/04/24 14:18:34;;;;;;;3.63;1.80;;;19.80;27.70;;;;;;8392673;28;20123;-57
2021/04/24 14:22:34;;;;;;;1.63;1.40;;;19.80;27.70;;;;;;8395440;28;20043;-57
2021/04/24 14:26:37;;;;;;;1.70;1.47;;;19.90;27.70;;;;;;8392386;28;20075;-57
2021/04/24 14:30:37;;;;;;;2.30;1.60;;;19.90;27.70;;;;;;8389428;28;20138;-56
2021/04/24 14:34:39;;;;;;;2.87;1.70;;;19.90;27.60;;;;;;8391590;28;20385;-56
2021/04/24 14:38:39;;;;;;;;;;;19.90;27.70;;;;;;8396757;28;20037;-56
2021/04/24 14:42:40;;;;;;;2.20;1.67;;;19.90;27.60;;;;;;8390526;28;20010;-56
2021/04/24 14:46:40;;;;;;;2.73;1.70;;;19.90;27.70;;;;;;8391763;28;20111;-58
2021/04/24 14:50:41;;;;;;;3.13;2.00;;;19.90;27.70;;;;;;8391678;28;20052;-57
2021/04/24 14:54:41;;;;;;;2.73;1.80;;;19.90;27.60;;;;;;8394403;28;20087;-57
2021/04/24 14:58:42;;;;;;;2.17;1.97;;;19.90;27.50;;;;;;8391273;28;20031;-56
2021/04/24 15:02:42;;;;;;;3.80;1.67;;;20.00;27.70;;;;;;8391478;28;20064;-57
2021/04/24 15:06:43;;;;;;;2.50;1.70;;;20.00;27.60;;;;;;8378955;28;20040;-57
2021/04/24 15:10:44;;;;;;;2.60;1.80;;;19.90;27.70;;;;;;8359086;27;20539;-57
2021/04/24 15:14:44;;;;;;;4.67;1.80;;;20.00;27.60;;;;;;8395550;28;20036;-57
2021/04/24 15:18:48;;;;;;;2.00;1.80;;;20.00;27.50;;;;;;8389012;28;20120;-58
2021/04/24 15:22:49;;;;;;;3.15;2.35;;;20.00;27.70;;;;;;8391191;28;20028;-57
2021/04/24 15:26:50;;;;;;;3.63;2.55;;;20.00;27.50;;;;;;8390943;28;20577;-57
2021/04/24 15:30:50;;;;;;;2.93;2.07;;;20.00;27.50;;;;;;8393715;28;20083;-57
2021/04/24 15:34:51;;;;;;;3.63;2.33;;;20.00;27.60;;;;;;8390753;28;20039;-56
2021/04/24 15:38:52;;;;;;;3.87;2.33;;;20.00;27.60;;;;;;8389125;28;20037;-50
2021/04/24 15:42:53;;;;;;;2.38;1.98;;;20.00;27.40;;;;;;8390809;28;20351;-57
2021/04/24 15:46:54;;;;;;;2.67;2.00;;;20.00;27.70;;;;;;8395310;28;20123;-56
2021/04/24 15:50:54;;;;;;;3.93;2.07;;;20.00;27.50;;;;;;8388922;28;20041;-56
2021/04/24 15:54:56;;;;;;;3.43;2.00;;;20.00;27.50;;;;;;8390730;28;20037;-55
2021/04/24 15:58:56;;;;;;;3.53;2.28;;;20.10;27.70;;;;;;8390745;28;20078;-58
2021/04/24 16:02:59;;;;;;;3.30;1.92;;;20.10;27.80;;;;;;8389030;28;20028;-58
2021/04/24 16:06:59;;;;;;;2.38;2.08;;;20.10;27.50;;;;;;8395088;28;20461;-57
2021/04/24 16:11:00;;;;;;;2.93;2.17;;;20.10;27.60;;;;;;8363965;27;20033;-57
2021/04/24 16:15:00;;;;;;;3.43;2.17;;;20.10;27.40;;;;;;8356465;28;20064;-58
2021/04/24 16:19:01;;;;;;;2.37;1.97;;;20.10;27.70;;;;;;8364205;28;20563;-58
2021/04/24 16:23:02;;;;;;;2.20;1.80;;;20.10;27.60;;;;;;8396252;28;20273;-57
2021/04/24 16:27:03;;;;;;;2.73;2.37;;;20.10;27.30;;;;;;8394484;28;20048;-57
2021/04/24 16:31:03;;;;;;;3.20;2.00;;;20.10;27.10;;;;;;8396051;28;20033;-57
2021/04/24 16:35:04;;;;;;;3.63;1.93;;;20.10;27.40;;;;;;8396109;28;20055;-56
2021/04/24 16:39:05;;;;;;;3.28;2.47;;;20.10;27.10;;;;;;8392344;28;20034;-57
2021/04/24 16:43:06;;;;;;;4.72;2.70;;;20.10;27.20;;;;;;8377389;28;20033;-55
2021/04/24 16:47:06;;;;;;;3.27;2.20;;;20.10;27.20;;;;;;8395511;28;20048;-56
2021/04/24 16:51:07;;;;;;;3.27;2.67;;;20.10;27.20;;;;;;8393568;28;20036;-57
2021/04/24 16:55:08;;;;;;;3.53;2.23;;;20.10;27.20;;;;;;8394856;28;20037;-57
2021/04/24 16:59:09;;;;;;;4.72;2.83;;;20.10;27.50;;;;;;8399582;28;20025;-57
2021/04/24 17:03:10;;;;;;;3.93;2.87;;;20.10;27.40;;;;;;8393070;28;20041;-58
2021/04/24 17:07:11;;;;;;;5.22;2.72;;;20.10;27.30;;;;;;8395027;28;20048;-57
2021/04/24 17:11:11;;;;;;;5.20;2.80;;;20.10;27.40;;;;;;8386596;28;20025;-58
2021/04/24 17:15:12;;;;;;;4.90;2.90;;;20.10;27.30;;;;;;8364296;28;20367;-56
2021/04/24 17:19:14;;;;;;;4.10;2.75;;;20.10;26.90;;;;;;8393123;28;20040;-56
2021/04/24 17:23:14;;;;;;;4.50;3.05;;;20.10;27.20;;;;;;8394351;28;20041;-56
2021/04/24 17:27:17;;;;;;;4.37;3.10;;;20.10;27.10;;;;;;8392233;28;20071;-56
2021/04/24 17:31:18;;;;;;;3.40;2.38;;;20.10;27.10;;;;;;8393929;28;20144;-57
2021/04/24 17:35:19;;;;;;;4.22;3.00;;;20.10;27.30;;;;;;8397945;28;20059;-57
2021/04/24 17:39:20;;;;;;;6.10;3.10;;;20.10;27.20;;;;;;8392109;28;20032;-58
2021/04/24 17:43:20;;;;;;;5.10;2.90;;;20.10;27.10;;;;;;8393838;28;20501;-57
2021/04/24 17:47:21;;;;;;;3.93;2.87;;;20.10;27.10;;;;;;8393534;28;20044;-57
2021/04/24 17:51:21;;;;;;;4.23;3.13;;;20.10;27.00;;;;;;8396219;28;20033;-57
2021/04/24 17:55:22;;;;;;;4.10;2.70;;;20.10;27.00;;;;;;8393818;28;20040;-57
2021/04/24 17:59:23;;;;;;;4.47;2.97;;;20.10;27.20;;;;;;8393055;28;20025;-57
2021/04/24 18:03:24;;;;;;;3.70;2.70;;;20.00;27.20;;;;;;8391343;28;20275;-57
2021/04/24 18:07:24;;;;;;;4.13;2.33;;;20.10;27.20;;;;;;8393852;28;20044;-57
2021/04/24 18:11:25;;;;;;;3.47;2.30;;;20.10;27.00;;;;;;8363324;28;20037;-58
2021/04/24 18:15:25;;;;;;;6.77;2.67;;;20.00;27.00;;;;;;8381661;28;20122;-58
2021/04/24 18:19:26;;;;;;;2.73;2.10;;;20.10;27.10;;;;;;8379627;28;20032;-57
2021/04/24 18:23:27;;;;;;;4.23;2.67;;;20.00;27.20;;;;;;8363218;28;20124;-57
2021/04/24 18:27:27;;;;;;;4.27;2.87;;;20.00;27.30;;;;;;8395041;28;20515;-57
2021/04/24 18:31:28;;;;;;;3.10;2.63;;;20.00;27.40;;;;;;8392144;28;20416;-57
2021/04/24 18:35:30;;;;;;;3.20;2.57;;;20.00;27.30;;;;;;8376009;28;20040;-57
2021/04/24 18:39:31;;;;;;;4.70;2.50;;;20.00;27.50;;;;;;8364966;28;20052;-58
2021/04/24 18:43:31;;;;;;;2.60;2.17;;;20.00;27.60;;;;;;8396396;28;20358;-57
2021/04/24 18:47:32;;;;;;;3.27;2.40;;;20.00;27.60;;;;;;8391157;28;20083;-57
2021/04/24 18:51:36;;;;;;;2.97;2.33;;;20.00;27.60;;;;;;8389894;28;20401;-56
2021/04/24 18:55:37;;;;;;;4.25;2.65;;;20.00;27.70;;;;;;8391334;28;20082;-56
2021/04/24 18:59:38;;;;;;;3.67;2.70;;;20.00;27.60;;;;;;8390258;28;20451;-58
2021/04/24 19:03:38;;;;;;;5.22;2.83;;;20.00;27.80;;;;;;8361337;27;20064;-56
2021/04/24 19:07:39;;;;;;;4.47;2.70;;;20.00;27.60;;;;;;8383727;28;20083;-56
2021/04/24 19:11:40;;;;;;;3.85;2.33;;;20.00;27.70;;;;;;8391178;28;20170;-58
2021/04/24 19:15:41;;;;;;;3.37;2.47;;;20.00;27.70;;;;;;8382634;28;20040;-58
2021/04/24 19:19:41;;;;;;;3.57;2.50;;;20.00;27.80;;;;;;8377649;28;20045;-57
2021/04/24 19:23:42;;;;;;;3.70;2.43;;;20.00;27.70;;;;;;8390766;28;20444;-58
2021/04/24 19:27:44;;;;;;;3.17;2.40;;;20.00;27.80;;;;;;8389488;28;20045;-58
2021/04/24 19:31:45;;;;;;;3.38;2.30;;;20.00;27.80;;;;;;8390920;28;20033;-57
2021/04/24 19:35:46;;;;;;;3.87;2.60;;;20.00;27.80;;;;;;8395296;28;20124;-57
2021/04/24 19:39:46;;;;;;;3.58;2.20;;;20.00;27.80;;;;;;8390336;28;20040;-58
2021/04/24 19:43:47;;;;;;;4.57;2.77;;;19.90;27.80;;;;;;8390860;28;20036;-57
2021/04/24 19:47:49;;;;;;;3.10;2.43;;;20.00;27.80;;;;;;8390612;28;20048;-57
2021/04/24 19:51:49;;;;;;;3.72;2.42;;;20.00;27.80;;;;;;8388923;28;20127;-57
2021/04/24 19:55:50;;;;;;;3.20;2.37;;;20.00;27.80;;;;;;8395182;28;20033;-58
2021/04/24 19:59:51;;;;;;;3.27;2.27;;;20.00;27.90;;;;;;8396873;28;20043;-56
2021/04/24 20:03:51;;;;;;;6.03;3.23;;;20.00;27.90;;;;;;8395108;28;20029;-58
2021/04/24 20:07:53;;;;;;;4.83;2.30;;;19.90;27.80;;;;;;8396975;28;20029;-58
2021/04/24 20:11:53;;;;;;;4.15;2.45;;;20.00;27.90;;;;;;8399376;28;20036;-56
2021/04/24 20:15:54;;;;;;;3.13;2.53;;;19.90;27.90;;;;;;8396498;28;20041;-57
2021/04/24 20:19:54;;;;;;;3.13;2.50;;;19.90;27.90;;;;;;8395803;28;20094;-57
2021/04/24 20:23:55;;;;;;;3.03;2.43;;;19.90;27.80;;;;;;8394429;28;20385;-58
2021/04/24 20:27:56;;;;;;;5.10;2.70;;;19.90;27.90;;;;;;8396088;28;20055;-58
2021/04/24 20:31:57;;;;;;;3.35;2.35;;;19.90;27.90;;;;;;8400574;28;20119;-58
2021/04/24 20:35:58;;;;;;;;;;;19.90;27.80;;;;;;8394889;28;20067;-58
2021/04/24 20:39:59;;;;;;;4.47;2.47;;;19.90;27.90;;;;;;8395977;28;19912;-58
2021/04/24 20:44:00;;;;;;;4.30;2.30;;;19.90;27.90;;;;;;8391037;28;20474;-58
2021/04/24 20:48:02;;;;;;;3.58;2.70;;;19.90;27.90;;;;;;8365185;28;20078;-58
2021/04/24 20:52:03;;;;;;;3.53;2.70;;;19.90;27.90;;;;;;8391018;28;20029;-58
2021/04/24 20:56:06;;;;;;;4.30;2.47;;;19.90;27.90;;;;;;8395255;27;20071;-58
2021/04/24 21:00:10;;;;;;;3.70;2.65;;;19.90;27.90;;;;;;8393703;28;20029;-58